sensor_id;sensor_type;location;lat;lon;timestamp;P1;durP1;ratioP1;P2;durP2;ratioP2
70505;SDS011;58032;49.820;6.274;2024-02-28T00:02:04;22.05;;;8.75;;
70505;SDS011;58032;49.820;6.274;2024-02-28T00:04:31;29.48;;;10.23;;
70505;SDS011;58032;49.820;6.274;2024-02-28T00:06:58;18.37;;;6.43;;
70505;SDS011;58032;49.820;6.274;2024-02-28T00:09:25;29.77;;;11.10;;
70505;SDS011;58032;49.820;6.274;2024-02-28T00:11:52;34.35;;;11.13;;
70505;SDS011;58032;49.820;6.274;2024-02-28T00:14:19;31.35;;;10.57;;
70505;SDS011;58032;49.820;6.274;2024-02-28T00:16:46;41.20;;;13.88;;
70505;SDS011;58032;49.820;6.274;2024-02-28T00:19:14;25.03;;;9.07;;
70505;SDS011;58032;49.820;6.274;2024-02-28T00:21:41;31.65;;;11.18;;
70505;SDS011;58032;49.820;6.274;2024-02-28T00:24:09;37.30;;;13.25;;
70505;SDS011;58032;49.820;6.274;2024-02-28T00:26:37;39.42;;;13.80;;
70505;SDS011;58032;49.820;6.274;2024-02-28T00:29:08;33.85;;;13.35;;
70505;SDS011;58032;49.820;6.274;2024-02-28T00:31:36;33.53;;;11.63;;
70505;SDS011;58032;49.820;6.274;2024-02-28T00:34:03;40.50;;;13.95;;
70505;SDS011;58032;49.820;6.274;2024-02-28T00:36:30;15.82;;;8.68;;
70505;SDS011;58032;49.820;6.274;2024-02-28T00:39:02;36.80;;;14.68;;
70505;SDS011;58032;49.820;6.274;2024-02-28T00:41:30;35.95;;;13.48;;
70505;SDS011;58032;49.820;6.274;2024-02-28T00:43:57;32.70;;;11.20;;
70505;SDS011;58032;49.820;6.274;2024-02-28T00:46:24;34.88;;;11.35;;
70505;SDS011;58032;49.820;6.274;2024-02-28T00:48:51;39.33;;;12.45;;
70505;SDS011;58032;49.820;6.274;2024-02-28T00:51:18;41.75;;;13.48;;
70505;SDS011;58032;49.820;6.274;2024-02-28T00:53:45;38.83;;;13.55;;
70505;SDS011;58032;49.820;6.274;2024-02-28T00:56:12;34.33;;;11.10;;
70505;SDS011;58032;49.820;6.274;2024-02-28T00:58:39;30.58;;;11.13;;
70505;SDS011;58032;49.820;6.274;2024-02-28T01:01:06;40.50;;;13.10;;
70505;SDS011;58032;49.820;6.274;2024-02-28T01:03:33;44.00;;;14.30;;
70505;SDS011;58032;49.820;6.274;2024-02-28T01:06:00;41.58;;;15.15;;
70505;SDS011;58032;49.820;6.274;2024-02-28T01:08:27;34.43;;;13.17;;
70505;SDS011;58032;49.820;6.274;2024-02-28T01:10:54;35.75;;;12.48;;
70505;SDS011;58032;49.820;6.274;2024-02-28T01:13:22;38.95;;;13.65;;
70505;SDS011;58032;49.820;6.274;2024-02-28T01:15:49;31.75;;;12.52;;
70505;SDS011;58032;49.820;6.274;2024-02-28T01:18:16;40.53;;;14.18;;
70505;SDS011;58032;49.820;6.274;2024-02-28T01:20:43;39.00;;;13.27;;
70505;SDS011;58032;49.820;6.274;2024-02-28T01:23:11;41.83;;;13.70;;
70505;SDS011;58032;49.820;6.274;2024-02-28T01:25:38;32.72;;;12.70;;
70505;SDS011;58032;49.820;6.274;2024-02-28T01:28:05;37.40;;;13.00;;
70505;SDS011;58032;49.820;6.274;2024-02-28T01:30:32;38.45;;;12.40;;
70505;SDS011;58032;49.820;6.274;2024-02-28T01:32:59;41.87;;;12.77;;
70505;SDS011;58032;49.820;6.274;2024-02-28T01:35:26;26.63;;;9.57;;
70505;SDS011;58032;49.820;6.274;2024-02-28T01:37:53;20.70;;;9.20;;
70505;SDS011;58032;49.820;6.274;2024-02-28T01:40:20;40.35;;;13.15;;
70505;SDS011;58032;49.820;6.274;2024-02-28T01:42:48;44.90;;;15.68;;
70505;SDS011;58032;49.820;6.274;2024-02-28T01:45:15;41.67;;;14.67;;
70505;SDS011;58032;49.820;6.274;2024-02-28T01:47:42;41.03;;;12.27;;
70505;SDS011;58032;49.820;6.274;2024-02-28T01:50:09;35.85;;;12.35;;
70505;SDS011;58032;49.820;6.274;2024-02-28T01:52:38;31.60;;;10.98;;
70505;SDS011;58032;49.820;6.274;2024-02-28T01:55:06;24.45;;;8.80;;
70505;SDS011;58032;49.820;6.274;2024-02-28T01:57:34;18.27;;;6.77;;
70505;SDS011;58032;49.820;6.274;2024-02-28T02:00:04;36.42;;;13.32;;
70505;SDS011;58032;49.820;6.274;2024-02-28T02:02:34;40.95;;;13.20;;
70505;SDS011;58032;49.820;6.274;2024-02-28T02:05:02;32.00;;;11.52;;
70505;SDS011;58032;49.820;6.274;2024-02-28T02:07:29;36.85;;;13.02;;
70505;SDS011;58032;49.820;6.274;2024-02-28T02:09:57;34.97;;;11.97;;
70505;SDS011;58032;49.820;6.274;2024-02-28T02:12:24;33.47;;;9.90;;
70505;SDS011;58032;49.820;6.274;2024-02-28T02:14:51;34.47;;;11.43;;
70505;SDS011;58032;49.820;6.274;2024-02-28T02:17:18;37.40;;;13.60;;
70505;SDS011;58032;49.820;6.274;2024-02-28T02:19:45;40.92;;;12.82;;
70505;SDS011;58032;49.820;6.274;2024-02-28T02:22:13;39.27;;;13.10;;
70505;SDS011;58032;49.820;6.274;2024-02-28T02:24:41;36.20;;;12.82;;
70505;SDS011;58032;49.820;6.274;2024-02-28T02:27:08;41.10;;;11.85;;
70505;SDS011;58032;49.820;6.274;2024-02-28T02:29:35;32.95;;;11.00;;
70505;SDS011;58032;49.820;6.274;2024-02-28T02:32:02;34.33;;;10.93;;
70505;SDS011;58032;49.820;6.274;2024-02-28T02:34:29;35.03;;;12.57;;
70505;SDS011;58032;49.820;6.274;2024-02-28T02:36:56;35.60;;;12.95;;
70505;SDS011;58032;49.820;6.274;2024-02-28T02:39:23;36.25;;;11.27;;
70505;SDS011;58032;49.820;6.274;2024-02-28T02:41:50;38.10;;;12.70;;
70505;SDS011;58032;49.820;6.274;2024-02-28T02:44:17;37.00;;;12.90;;
70505;SDS011;58032;49.820;6.274;2024-02-28T02:46:44;36.70;;;11.80;;
70505;SDS011;58032;49.820;6.274;2024-02-28T02:49:11;30.40;;;9.88;;
70505;SDS011;58032;49.820;6.274;2024-02-28T02:51:38;37.92;;;12.07;;
70505;SDS011;58032;49.820;6.274;2024-02-28T02:54:05;38.85;;;11.48;;
70505;SDS011;58032;49.820;6.274;2024-02-28T02:56:32;29.00;;;9.65;;
70505;SDS011;58032;49.820;6.274;2024-02-28T02:58:59;34.97;;;11.97;;
70505;SDS011;58032;49.820;6.274;2024-02-28T03:01:26;27.60;;;9.98;;
70505;SDS011;58032;49.820;6.274;2024-02-28T03:03:53;29.05;;;10.18;;
70505;SDS011;58032;49.820;6.274;2024-02-28T03:06:21;33.85;;;12.23;;
70505;SDS011;58032;49.820;6.274;2024-02-28T03:08:50;34.67;;;11.18;;
70505;SDS011;58032;49.820;6.274;2024-02-28T03:11:18;32.40;;;10.83;;
70505;SDS011;58032;49.820;6.274;2024-02-28T03:13:45;29.92;;;10.20;;
70505;SDS011;58032;49.820;6.274;2024-02-28T03:16:12;22.83;;;9.13;;
70505;SDS011;58032;49.820;6.274;2024-02-28T03:18:39;17.08;;;5.50;;
70505;SDS011;58032;49.820;6.274;2024-02-28T03:21:06;28.08;;;10.18;;
70505;SDS011;58032;49.820;6.274;2024-02-28T03:23:33;28.10;;;9.90;;
70505;SDS011;58032;49.820;6.274;2024-02-28T03:26:02;33.75;;;12.48;;
70505;SDS011;58032;49.820;6.274;2024-02-28T03:28:30;32.15;;;10.30;;
70505;SDS011;58032;49.820;6.274;2024-02-28T03:30:57;26.65;;;8.73;;
70505;SDS011;58032;49.820;6.274;2024-02-28T03:33:24;26.00;;;9.13;;
70505;SDS011;58032;49.820;6.274;2024-02-28T03:35:51;31.13;;;9.87;;
70505;SDS011;58032;49.820;6.274;2024-02-28T03:38:18;29.70;;;10.05;;
70505;SDS011;58032;49.820;6.274;2024-02-28T03:40:45;38.13;;;10.80;;
70505;SDS011;58032;49.820;6.274;2024-02-28T03:43:12;22.08;;;8.80;;
70505;SDS011;58032;49.820;6.274;2024-02-28T03:45:40;27.65;;;9.25;;
70505;SDS011;58032;49.820;6.274;2024-02-28T03:48:07;28.03;;;9.37;;
70505;SDS011;58032;49.820;6.274;2024-02-28T03:50:34;28.80;;;10.45;;
70505;SDS011;58032;49.820;6.274;2024-02-28T03:53:01;30.42;;;10.73;;
70505;SDS011;58032;49.820;6.274;2024-02-28T03:55:28;16.23;;;5.30;;
70505;SDS011;58032;49.820;6.274;2024-02-28T03:57:55;31.95;;;10.23;;
70505;SDS011;58032;49.820;6.274;2024-02-28T04:00:22;36.57;;;11.73;;
70505;SDS011;58032;49.820;6.274;2024-02-28T04:02:49;29.45;;;9.07;;
70505;SDS011;58032;49.820;6.274;2024-02-28T04:05:16;35.70;;;11.50;;
70505;SDS011;58032;49.820;6.274;2024-02-28T04:07:44;22.48;;;7.00;;
70505;SDS011;58032;49.820;6.274;2024-02-28T04:10:11;29.50;;;10.00;;
70505;SDS011;58032;49.820;6.274;2024-02-28T04:12:38;31.60;;;9.40;;
70505;SDS011;58032;49.820;6.274;2024-02-28T04:15:05;30.17;;;10.23;;
70505;SDS011;58032;49.820;6.274;2024-02-28T04:17:32;32.33;;;11.02;;
70505;SDS011;58032;49.820;6.274;2024-02-28T04:19:59;31.88;;;10.27;;
70505;SDS011;58032;49.820;6.274;2024-02-28T04:22:31;34.17;;;10.25;;
70505;SDS011;58032;49.820;6.274;2024-02-28T04:24:58;32.30;;;9.80;;
70505;SDS011;58032;49.820;6.274;2024-02-28T04:27:25;32.45;;;10.95;;
70505;SDS011;58032;49.820;6.274;2024-02-28T04:29:52;32.17;;;10.00;;
70505;SDS011;58032;49.820;6.274;2024-02-28T04:32:19;33.47;;;10.50;;
70505;SDS011;58032;49.820;6.274;2024-02-28T04:34:46;32.10;;;10.02;;
70505;SDS011;58032;49.820;6.274;2024-02-28T04:37:13;36.67;;;11.17;;
70505;SDS011;58032;49.820;6.274;2024-02-28T04:39:40;34.28;;;11.73;;
70505;SDS011;58032;49.820;6.274;2024-02-28T04:42:07;40.63;;;10.85;;
70505;SDS011;58032;49.820;6.274;2024-02-28T04:44:34;32.63;;;11.13;;
70505;SDS011;58032;49.820;6.274;2024-02-28T04:47:01;36.92;;;11.00;;
70505;SDS011;58032;49.820;6.274;2024-02-28T04:49:28;30.67;;;9.80;;
70505;SDS011;58032;49.820;6.274;2024-02-28T04:51:55;30.40;;;9.63;;
70505;SDS011;58032;49.820;6.274;2024-02-28T04:54:22;32.83;;;10.02;;
70505;SDS011;58032;49.820;6.274;2024-02-28T04:56:49;30.08;;;9.60;;
70505;SDS011;58032;49.820;6.274;2024-02-28T04:59:17;29.25;;;9.60;;
70505;SDS011;58032;49.820;6.274;2024-02-28T05:01:44;33.93;;;9.47;;
70505;SDS011;58032;49.820;6.274;2024-02-28T05:04:12;27.10;;;8.98;;
70505;SDS011;58032;49.820;6.274;2024-02-28T05:06:39;29.40;;;10.00;;
70505;SDS011;58032;49.820;6.274;2024-02-28T05:09:06;33.75;;;10.18;;
70505;SDS011;58032;49.820;6.274;2024-02-28T05:11:33;34.45;;;9.90;;
70505;SDS011;58032;49.820;6.274;2024-02-28T05:14:01;27.20;;;9.10;;
70505;SDS011;58032;49.820;6.274;2024-02-28T05:16:28;30.00;;;9.82;;
70505;SDS011;58032;49.820;6.274;2024-02-28T05:18:55;29.80;;;8.82;;
70505;SDS011;58032;49.820;6.274;2024-02-28T05:21:22;37.22;;;9.50;;
70505;SDS011;58032;49.820;6.274;2024-02-28T05:23:49;32.20;;;9.40;;
70505;SDS011;58032;49.820;6.274;2024-02-28T05:26:16;30.07;;;9.03;;
70505;SDS011;58032;49.820;6.274;2024-02-28T05:28:43;40.75;;;9.07;;
70505;SDS011;58032;49.820;6.274;2024-02-28T05:31:23;36.35;;;11.18;;
70505;SDS011;58032;49.820;6.274;2024-02-28T05:33:51;33.65;;;10.25;;
70505;SDS011;58032;49.820;6.274;2024-02-28T05:36:21;31.75;;;9.25;;
70505;SDS011;58032;49.820;6.274;2024-02-28T05:38:48;38.03;;;9.63;;
70505;SDS011;58032;49.820;6.274;2024-02-28T05:41:16;28.80;;;10.05;;
70505;SDS011;58032;49.820;6.274;2024-02-28T05:43:44;37.80;;;9.65;;
70505;SDS011;58032;49.820;6.274;2024-02-28T05:46:12;29.52;;;9.70;;
70505;SDS011;58032;49.820;6.274;2024-02-28T05:48:40;33.30;;;8.55;;
70505;SDS011;58032;49.820;6.274;2024-02-28T05:51:08;88.73;;;9.90;;
70505;SDS011;58032;49.820;6.274;2024-02-28T05:53:35;50.63;;;9.27;;
70505;SDS011;58032;49.820;6.274;2024-02-28T05:56:02;87.40;;;10.13;;
70505;SDS011;58032;49.820;6.274;2024-02-28T05:58:30;95.63;;;10.45;;
70505;SDS011;58032;49.820;6.274;2024-02-28T06:00:57;63.72;;;10.23;;
70505;SDS011;58032;49.820;6.274;2024-02-28T06:03:24;97.20;;;9.73;;
70505;SDS011;58032;49.820;6.274;2024-02-28T06:05:51;136.25;;;11.82;;
70505;SDS011;58032;49.820;6.274;2024-02-28T06:08:18;137.65;;;9.85;;
70505;SDS011;58032;49.820;6.274;2024-02-28T06:10:45;195.70;;;11.73;;
70505;SDS011;58032;49.820;6.274;2024-02-28T06:13:13;86.05;;;9.32;;
70505;SDS011;58032;49.820;6.274;2024-02-28T06:15:40;164.20;;;11.40;;
70505;SDS011;58032;49.820;6.274;2024-02-28T06:18:09;87.18;;;10.07;;
70505;SDS011;58032;49.820;6.274;2024-02-28T06:20:36;92.82;;;8.68;;
70505;SDS011;58032;49.820;6.274;2024-02-28T06:23:04;144.93;;;11.50;;
70505;SDS011;58032;49.820;6.274;2024-02-28T06:25:33;150.75;;;10.77;;
70505;SDS011;58032;49.820;6.274;2024-02-28T06:28:01;136.33;;;10.93;;
70505;SDS011;58032;49.820;6.274;2024-02-28T06:30:29;69.13;;;8.85;;
70505;SDS011;58032;49.820;6.274;2024-02-28T06:32:58;115.18;;;11.25;;
70505;SDS011;58032;49.820;6.274;2024-02-28T06:35:26;82.40;;;10.00;;
70505;SDS011;58032;49.820;6.274;2024-02-28T06:37:54;163.18;;;11.80;;
70505;SDS011;58032;49.820;6.274;2024-02-28T06:40:21;134.03;;;10.33;;
70505;SDS011;58032;49.820;6.274;2024-02-28T06:42:48;98.75;;;9.02;;
70505;SDS011;58032;49.820;6.274;2024-02-28T06:45:15;93.40;;;12.10;;
70505;SDS011;58032;49.820;6.274;2024-02-28T06:47:42;72.05;;;8.68;;
70505;SDS011;58032;49.820;6.274;2024-02-28T06:50:11;99.30;;;10.90;;
70505;SDS011;58032;49.820;6.274;2024-02-28T06:52:38;119.53;;;9.20;;
70505;SDS011;58032;49.820;6.274;2024-02-28T06:55:06;81.13;;;8.13;;
70505;SDS011;58032;49.820;6.274;2024-02-28T06:57:37;38.58;;;8.63;;
70505;SDS011;58032;49.820;6.274;2024-02-28T07:00:05;38.78;;;6.93;;
70505;SDS011;58032;49.820;6.274;2024-02-28T07:02:35;29.13;;;8.55;;
70505;SDS011;58032;49.820;6.274;2024-02-28T07:05:02;31.60;;;7.20;;
70505;SDS011;58032;49.820;6.274;2024-02-28T07:07:33;42.58;;;9.48;;
70505;SDS011;58032;49.820;6.274;2024-02-28T07:10:02;83.55;;;11.68;;
70505;SDS011;58032;49.820;6.274;2024-02-28T07:12:31;32.38;;;8.95;;
70505;SDS011;58032;49.820;6.274;2024-02-28T07:14:58;159.50;;;10.10;;
70505;SDS011;58032;49.820;6.274;2024-02-28T07:17:25;38.60;;;8.13;;
70505;SDS011;58032;49.820;6.274;2024-02-28T07:19:52;66.88;;;9.57;;
70505;SDS011;58032;49.820;6.274;2024-02-28T07:22:19;68.72;;;9.95;;
70505;SDS011;58032;49.820;6.274;2024-02-28T07:24:47;84.80;;;11.43;;
70505;SDS011;58032;49.820;6.274;2024-02-28T07:27:15;55.50;;;9.80;;
70505;SDS011;58032;49.820;6.274;2024-02-28T07:29:43;105.53;;;10.87;;
70505;SDS011;58032;49.820;6.274;2024-02-28T07:32:10;34.45;;;8.70;;
70505;SDS011;58032;49.820;6.274;2024-02-28T07:34:38;82.60;;;10.00;;
70505;SDS011;58032;49.820;6.274;2024-02-28T07:37:06;90.15;;;10.48;;
70505;SDS011;58032;49.820;6.274;2024-02-28T07:39:33;65.80;;;8.68;;
70505;SDS011;58032;49.820;6.274;2024-02-28T07:42:00;94.33;;;8.83;;
70505;SDS011;58032;49.820;6.274;2024-02-28T07:44:27;58.80;;;8.07;;
70505;SDS011;58032;49.820;6.274;2024-02-28T07:46:57;35.95;;;8.38;;
70505;SDS011;58032;49.820;6.274;2024-02-28T07:49:25;28.13;;;7.38;;
70505;SDS011;58032;49.820;6.274;2024-02-28T07:51:53;29.77;;;8.65;;
70505;SDS011;58032;49.820;6.274;2024-02-28T07:54:21;46.73;;;8.17;;
70505;SDS011;58032;49.820;6.274;2024-02-28T07:56:48;34.40;;;7.50;;
70505;SDS011;58032;49.820;6.274;2024-02-28T07:59:15;74.43;;;9.23;;
70505;SDS011;58032;49.820;6.274;2024-02-28T08:01:42;63.00;;;7.05;;
70505;SDS011;58032;49.820;6.274;2024-02-28T08:04:09;33.10;;;7.90;;
70505;SDS011;58032;49.820;6.274;2024-02-28T08:06:36;33.00;;;8.90;;
70505;SDS011;58032;49.820;6.274;2024-02-28T08:09:03;63.22;;;8.65;;
70505;SDS011;58032;49.820;6.274;2024-02-28T08:11:31;44.33;;;7.95;;
70505;SDS011;58032;49.820;6.274;2024-02-28T08:13:58;90.28;;;10.00;;
70505;SDS011;58032;49.820;6.274;2024-02-28T08:16:25;31.77;;;6.18;;
70505;SDS011;58032;49.820;6.274;2024-02-28T08:18:53;49.47;;;8.10;;
70505;SDS011;58032;49.820;6.274;2024-02-28T08:21:20;45.10;;;7.72;;
70505;SDS011;58032;49.820;6.274;2024-02-28T08:23:47;31.48;;;9.32;;
70505;SDS011;58032;49.820;6.274;2024-02-28T08:26:14;39.72;;;8.98;;
70505;SDS011;58032;49.820;6.274;2024-02-28T08:28:41;49.60;;;9.02;;
70505;SDS011;58032;49.820;6.274;2024-02-28T08:31:08;73.67;;;10.10;;
70505;SDS011;58032;49.820;6.274;2024-02-28T08:33:35;35.70;;;8.40;;
70505;SDS011;58032;49.820;6.274;2024-02-28T08:36:02;34.05;;;8.80;;
70505;SDS011;58032;49.820;6.274;2024-02-28T08:38:30;70.80;;;8.52;;
70505;SDS011;58032;49.820;6.274;2024-02-28T08:40:57;74.93;;;10.77;;
70505;SDS011;58032;49.820;6.274;2024-02-28T08:43:24;64.37;;;9.17;;
70505;SDS011;58032;49.820;6.274;2024-02-28T08:45:51;64.20;;;8.63;;
70505;SDS011;58032;49.820;6.274;2024-02-28T08:48:18;36.67;;;8.80;;
70505;SDS011;58032;49.820;6.274;2024-02-28T08:50:45;48.53;;;9.18;;
70505;SDS011;58032;49.820;6.274;2024-02-28T08:53:12;45.15;;;9.27;;
70505;SDS011;58032;49.820;6.274;2024-02-28T08:55:39;27.53;;;8.40;;
70505;SDS011;58032;49.820;6.274;2024-02-28T08:58:06;25.75;;;8.88;;
70505;SDS011;58032;49.820;6.274;2024-02-28T09:00:33;25.27;;;7.97;;
70505;SDS011;58032;49.820;6.274;2024-02-28T09:03:00;24.77;;;8.05;;
70505;SDS011;58032;49.820;6.274;2024-02-28T09:05:28;28.85;;;8.48;;
70505;SDS011;58032;49.820;6.274;2024-02-28T09:07:55;30.93;;;9.43;;
70505;SDS011;58032;49.820;6.274;2024-02-28T09:10:23;16.38;;;5.88;;
70505;SDS011;58032;49.820;6.274;2024-02-28T09:12:51;34.05;;;8.60;;
70505;SDS011;58032;49.820;6.274;2024-02-28T09:15:18;30.25;;;7.93;;
70505;SDS011;58032;49.820;6.274;2024-02-28T09:17:46;30.40;;;7.10;;
70505;SDS011;58032;49.820;6.274;2024-02-28T09:20:13;27.63;;;7.47;;
70505;SDS011;58032;49.820;6.274;2024-02-28T09:22:40;25.92;;;8.60;;
70505;SDS011;58032;49.820;6.274;2024-02-28T09:25:07;27.17;;;8.52;;
70505;SDS011;58032;49.820;6.274;2024-02-28T09:27:35;27.58;;;7.68;;
70505;SDS011;58032;49.820;6.274;2024-02-28T09:30:03;25.60;;;8.13;;
70505;SDS011;58032;49.820;6.274;2024-02-28T09:32:31;22.17;;;7.77;;
70505;SDS011;58032;49.820;6.274;2024-02-28T09:34:58;26.27;;;7.20;;
70505;SDS011;58032;49.820;6.274;2024-02-28T09:37:25;27.40;;;8.30;;
70505;SDS011;58032;49.820;6.274;2024-02-28T09:39:52;27.38;;;8.50;;
70505;SDS011;58032;49.820;6.274;2024-02-28T09:42:19;26.20;;;8.25;;
70505;SDS011;58032;49.820;6.274;2024-02-28T09:44:47;24.77;;;7.07;;
70505;SDS011;58032;49.820;6.274;2024-02-28T09:47:14;23.92;;;7.85;;
70505;SDS011;58032;49.820;6.274;2024-02-28T09:49:42;12.05;;;4.90;;
70505;SDS011;58032;49.820;6.274;2024-02-28T09:52:09;24.52;;;6.97;;
70505;SDS011;58032;49.820;6.274;2024-02-28T09:54:36;21.45;;;6.00;;
70505;SDS011;58032;49.820;6.274;2024-02-28T09:57:03;23.23;;;8.00;;
70505;SDS011;58032;49.820;6.274;2024-02-28T09:59:31;25.27;;;8.30;;
70505;SDS011;58032;49.820;6.274;2024-02-28T10:02:01;21.42;;;8.10;;
70505;SDS011;58032;49.820;6.274;2024-02-28T10:04:29;23.38;;;7.80;;
70505;SDS011;58032;49.820;6.274;2024-02-28T10:06:57;19.77;;;6.43;;
70505;SDS011;58032;49.820;6.274;2024-02-28T10:09:36;16.53;;;7.43;;
70505;SDS011;58032;49.820;6.274;2024-02-28T10:12:03;18.55;;;7.05;;
70505;SDS011;58032;49.820;6.274;2024-02-28T10:14:30;21.42;;;7.25;;
70505;SDS011;58032;49.820;6.274;2024-02-28T10:16:57;23.98;;;7.68;;
70505;SDS011;58032;49.820;6.274;2024-02-28T10:19:24;16.20;;;5.70;;
70505;SDS011;58032;49.820;6.274;2024-02-28T10:21:51;19.53;;;6.83;;
70505;SDS011;58032;49.820;6.274;2024-02-28T10:24:18;18.10;;;6.72;;
70505;SDS011;58032;49.820;6.274;2024-02-28T10:26:46;19.77;;;6.88;;
70505;SDS011;58032;49.820;6.274;2024-02-28T10:29:25;19.05;;;6.55;;
70505;SDS011;58032;49.820;6.274;2024-02-28T10:31:57;19.17;;;6.20;;
70505;SDS011;58032;49.820;6.274;2024-02-28T10:34:25;18.77;;;7.07;;
70505;SDS011;58032;49.820;6.274;2024-02-28T10:36:52;20.73;;;7.22;;
70505;SDS011;58032;49.820;6.274;2024-02-28T10:39:19;19.42;;;7.03;;
70505;SDS011;58032;49.820;6.274;2024-02-28T10:41:48;22.35;;;7.25;;
70505;SDS011;58032;49.820;6.274;2024-02-28T10:44:19;21.52;;;7.63;;
70505;SDS011;58032;49.820;6.274;2024-02-28T10:46:48;22.27;;;7.03;;
70505;SDS011;58032;49.820;6.274;2024-02-28T10:49:16;17.00;;;5.55;;
70505;SDS011;58032;49.820;6.274;2024-02-28T10:51:45;20.33;;;7.72;;
70505;SDS011;58032;49.820;6.274;2024-02-28T10:54:15;18.33;;;6.70;;
70505;SDS011;58032;49.820;6.274;2024-02-28T10:56:42;15.68;;;6.15;;
70505;SDS011;58032;49.820;6.274;2024-02-28T10:59:10;17.77;;;6.60;;
70505;SDS011;58032;49.820;6.274;2024-02-28T11:01:40;18.33;;;7.60;;
70505;SDS011;58032;49.820;6.274;2024-02-28T11:04:10;17.80;;;6.95;;
70505;SDS011;58032;49.820;6.274;2024-02-28T11:06:48;18.30;;;7.07;;
70505;SDS011;58032;49.820;6.274;2024-02-28T11:09:19;25.70;;;8.40;;
70505;SDS011;58032;49.820;6.274;2024-02-28T11:11:50;21.00;;;6.97;;
70505;SDS011;58032;49.820;6.274;2024-02-28T11:14:18;21.35;;;7.30;;
70505;SDS011;58032;49.820;6.274;2024-02-28T11:16:59;20.02;;;7.40;;
70505;SDS011;58032;49.820;6.274;2024-02-28T11:19:30;19.08;;;6.70;;
70505;SDS011;58032;49.820;6.274;2024-02-28T11:21:59;17.67;;;6.03;;
70505;SDS011;58032;49.820;6.274;2024-02-28T11:24:30;17.60;;;6.70;;
70505;SDS011;58032;49.820;6.274;2024-02-28T11:26:58;18.20;;;6.22;;
70505;SDS011;58032;49.820;6.274;2024-02-28T11:29:26;20.70;;;7.28;;
70505;SDS011;58032;49.820;6.274;2024-02-28T11:31:55;18.60;;;6.55;;
70505;SDS011;58032;49.820;6.274;2024-02-28T11:34:22;17.02;;;6.40;;
70505;SDS011;58032;49.820;6.274;2024-02-28T11:36:49;20.17;;;6.87;;
70505;SDS011;58032;49.820;6.274;2024-02-28T11:39:17;13.73;;;5.45;;
70505;SDS011;58032;49.820;6.274;2024-02-28T11:41:45;18.00;;;7.18;;
70505;SDS011;58032;49.820;6.274;2024-02-28T11:44:13;16.08;;;5.20;;
70505;SDS011;58032;49.820;6.274;2024-02-28T11:46:42;18.38;;;6.95;;
70505;SDS011;58032;49.820;6.274;2024-02-28T11:49:13;13.40;;;5.80;;
70505;SDS011;58032;49.820;6.274;2024-02-28T11:51:43;18.77;;;6.68;;
70505;SDS011;58032;49.820;6.274;2024-02-28T11:54:11;17.75;;;7.00;;
70505;SDS011;58032;49.820;6.274;2024-02-28T11:56:38;16.00;;;7.13;;
70505;SDS011;58032;49.820;6.274;2024-02-28T11:59:06;19.75;;;7.50;;
70505;SDS011;58032;49.820;6.274;2024-02-28T12:01:35;16.43;;;5.23;;
70505;SDS011;58032;49.820;6.274;2024-02-28T12:04:06;20.58;;;7.38;;
70505;SDS011;58032;49.820;6.274;2024-02-28T12:06:34;18.45;;;6.70;;
70505;SDS011;58032;49.820;6.274;2024-02-28T12:09:03;16.00;;;6.68;;
70505;SDS011;58032;49.820;6.274;2024-02-28T12:11:31;18.40;;;7.22;;
70505;SDS011;58032;49.820;6.274;2024-02-28T12:13:58;17.50;;;5.73;;
70505;SDS011;58032;49.820;6.274;2024-02-28T12:16:26;22.50;;;6.97;;
70505;SDS011;58032;49.820;6.274;2024-02-28T12:18:54;17.95;;;7.03;;
70505;SDS011;58032;49.820;6.274;2024-02-28T12:21:21;20.65;;;7.90;;
70505;SDS011;58032;49.820;6.274;2024-02-28T12:23:49;19.25;;;7.38;;
70505;SDS011;58032;49.820;6.274;2024-02-28T12:26:16;18.10;;;7.30;;
70505;SDS011;58032;49.820;6.274;2024-02-28T12:28:46;20.42;;;7.25;;
70505;SDS011;58032;49.820;6.274;2024-02-28T12:31:13;16.85;;;6.57;;
70505;SDS011;58032;49.820;6.274;2024-02-28T12:33:41;23.40;;;7.93;;
70505;SDS011;58032;49.820;6.274;2024-02-28T12:36:09;20.90;;;7.20;;
70505;SDS011;58032;49.820;6.274;2024-02-28T12:38:36;17.33;;;7.03;;
70505;SDS011;58032;49.820;6.274;2024-02-28T12:41:03;21.65;;;7.97;;
70505;SDS011;58032;49.820;6.274;2024-02-28T12:43:30;22.17;;;7.72;;
70505;SDS011;58032;49.820;6.274;2024-02-28T12:45:58;20.48;;;8.02;;
70505;SDS011;58032;49.820;6.274;2024-02-28T12:48:26;19.33;;;7.60;;
70505;SDS011;58032;49.820;6.274;2024-02-28T12:50:54;20.65;;;8.00;;
70505;SDS011;58032;49.820;6.274;2024-02-28T12:53:21;22.13;;;8.40;;
70505;SDS011;58032;49.820;6.274;2024-02-28T12:55:48;19.73;;;8.05;;
70505;SDS011;58032;49.820;6.274;2024-02-28T12:58:15;18.63;;;8.00;;
70505;SDS011;58032;49.820;6.274;2024-02-28T13:00:42;20.30;;;8.67;;
70505;SDS011;58032;49.820;6.274;2024-02-28T13:03:09;21.17;;;8.63;;
70505;SDS011;58032;49.820;6.274;2024-02-28T13:05:36;18.63;;;7.45;;
70505;SDS011;58032;49.820;6.274;2024-02-28T13:08:04;18.88;;;7.35;;
70505;SDS011;58032;49.820;6.274;2024-02-28T13:10:31;19.40;;;8.18;;
70505;SDS011;58032;49.820;6.274;2024-02-28T13:13:00;19.70;;;8.30;;
70505;SDS011;58032;49.820;6.274;2024-02-28T13:15:28;18.27;;;7.72;;
70505;SDS011;58032;49.820;6.274;2024-02-28T13:17:55;18.45;;;8.02;;
70505;SDS011;58032;49.820;6.274;2024-02-28T13:20:22;19.15;;;8.40;;
70505;SDS011;58032;49.820;6.274;2024-02-28T13:22:49;22.30;;;8.63;;
70505;SDS011;58032;49.820;6.274;2024-02-28T13:25:17;25.13;;;8.97;;
70505;SDS011;58032;49.820;6.274;2024-02-28T13:27:46;22.67;;;8.30;;
70505;SDS011;58032;49.820;6.274;2024-02-28T13:30:13;22.05;;;8.52;;
70505;SDS011;58032;49.820;6.274;2024-02-28T13:32:41;18.92;;;8.40;;
70505;SDS011;58032;49.820;6.274;2024-02-28T13:35:08;21.77;;;8.75;;
70505;SDS011;58032;49.820;6.274;2024-02-28T13:37:37;19.67;;;7.93;;
70505;SDS011;58032;49.820;6.274;2024-02-28T13:40:07;21.20;;;8.13;;
70505;SDS011;58032;49.820;6.274;2024-02-28T13:42:37;21.27;;;7.85;;
70505;SDS011;58032;49.820;6.274;2024-02-28T13:45:07;23.25;;;8.55;;
70505;SDS011;58032;49.820;6.274;2024-02-28T13:47:35;21.55;;;7.80;;
70505;SDS011;58032;49.820;6.274;2024-02-28T13:50:02;19.67;;;7.80;;
70505;SDS011;58032;49.820;6.274;2024-02-28T13:52:30;19.60;;;8.45;;
70505;SDS011;58032;49.820;6.274;2024-02-28T13:54:57;21.00;;;7.47;;
70505;SDS011;58032;49.820;6.274;2024-02-28T13:57:24;19.80;;;8.40;;
70505;SDS011;58032;49.820;6.274;2024-02-28T13:59:51;17.77;;;7.43;;
70505;SDS011;58032;49.820;6.274;2024-02-28T14:02:21;19.63;;;7.47;;
70505;SDS011;58032;49.820;6.274;2024-02-28T14:04:49;23.30;;;9.07;;
70505;SDS011;58032;49.820;6.274;2024-02-28T14:07:16;17.55;;;7.32;;
70505;SDS011;58032;49.820;6.274;2024-02-28T14:09:43;20.45;;;8.02;;
70505;SDS011;58032;49.820;6.274;2024-02-28T14:12:13;19.15;;;7.38;;
70505;SDS011;58032;49.820;6.274;2024-02-28T14:14:40;17.87;;;7.67;;
70505;SDS011;58032;49.820;6.274;2024-02-28T14:17:07;19.05;;;8.35;;
70505;SDS011;58032;49.820;6.274;2024-02-28T14:19:34;18.25;;;6.65;;
70505;SDS011;58032;49.820;6.274;2024-02-28T14:22:04;18.02;;;7.65;;
70505;SDS011;58032;49.820;6.274;2024-02-28T14:24:31;20.95;;;7.65;;
70505;SDS011;58032;49.820;6.274;2024-02-28T14:26:58;19.30;;;8.57;;
70505;SDS011;58032;49.820;6.274;2024-02-28T14:29:25;20.77;;;8.55;;
70505;SDS011;58032;49.820;6.274;2024-02-28T14:31:53;20.98;;;7.70;;